Data Viewer
| City | State | Eastern Time | Source | Temp | DewPt | RH | BP | 5 Min Precip | Wind Speed | Wind Dir | 5 Min Wind Max | 5 Min Wind Max Dir |
|---|---|---|---|---|---|---|---|---|---|---|---|---|
| Danbury | CT | 2026-05-03 16:45 | ASOS | 55 | 21 | 26 | 29.81 | 16 | W | |||
| Danbury | CT | 2026-05-04 08:25 | ASOS | 55 | 32 | 41 | 29.93 | 9 | WSW | |||
| Danbury | CT | 2026-05-04 08:53 | ASOS | 57 | 31 | 37 | 29.92 | 15 | SW | |||
| Danbury | CT | 2026-05-04 08:50 | ASOS | 55 | 30 | 38 | 29.93 | 16 | SW | |||
| Danbury | CT | 2026-05-04 08:45 | ASOS | 55 | 30 | 38 | 29.93 | 13 | SW | |||
| Danbury | CT | 2026-05-04 08:40 | ASOS | 55 | 32 | 41 | 29.93 | 12 | WSW | |||
| Danbury | CT | 2026-05-04 08:35 | ASOS | 55 | 32 | 41 | 29.93 | 10 | SW | |||
| Danbury | CT | 2026-05-04 08:30 | ASOS | 55 | 32 | 41 | 29.93 | 10 | WSW | |||
| Danbury | CT | 2026-05-04 08:20 | ASOS | 55 | 32 | 41 | 29.93 | 8 | SW | |||
| Danbury | CT | 2026-05-04 09:05 | ASOS | 57 | 30 | 36 | 29.92 | 16 | WSW | |||
| Danbury | CT | 2026-05-04 08:15 | ASOS | 54 | 30 | 41 | 29.93 | 10 | WSW | |||
| Danbury | CT | 2026-05-04 08:10 | ASOS | 54 | 32 | 44 | 29.93 | 9 | SW | |||
| Danbury | CT | 2026-05-04 08:05 | ASOS | 54 | 34 | 47 | 29.94 | 8 | SW | |||
| Danbury | CT | 2026-05-04 08:00 | ASOS | 54 | 32 | 44 | 29.94 | 12 | WSW | |||
| Danbury | CT | 2026-05-04 07:55 | ASOS | 54 | 32 | 44 | 29.94 | 8 | SW | |||
| Danbury | CT | 2026-05-04 07:53 | ASOS | 53 | 32 | 44 | 29.94 | 8 | WSW | |||
| Danbury | CT | 2026-05-04 09:00 | ASOS | 57 | 30 | 36 | 29.92 | 15 | WSW | |||
| Danbury | CT | 2026-05-04 09:10 | ASOS | 57 | 32 | 38 | 29.91 | 16 | WSW | |||
| Danbury | CT | 2026-05-04 07:45 | ASOS | 54 | 30 | 41 | 29.94 | 10 | WSW | |||
| Danbury | CT | 2026-05-04 09:53 | ASOS | 61 | 31 | 32 | 29.90 | 17 | SW | |||
| Danbury | CT | 2026-05-04 10:20 | ASOS | 61 | 30 | 31 | 29.90 | 17 | W | |||
| Danbury | CT | 2026-05-04 10:15 | ASOS | 61 | 32 | 34 | 29.90 | 14 | WSW | |||
| Danbury | CT | 2026-05-04 10:10 | ASOS | 61 | 30 | 31 | 29.90 | 17 | WSW | |||
| Danbury | CT | 2026-05-04 10:05 | ASOS | 61 | 30 | 31 | 29.90 | 13 | SW | |||
| Danbury | CT | 2026-05-04 10:00 | ASOS | 61 | 30 | 31 | 29.90 | 17 | SSW | |||
| Danbury | CT | 2026-05-04 09:55 | ASOS | 61 | 30 | 31 | 29.90 | 16 | SW | |||
| Danbury | CT | 2026-05-04 09:50 | ASOS | 61 | 32 | 34 | 29.90 | 14 | SW | |||
| Danbury | CT | 2026-05-04 09:15 | ASOS | 57 | 30 | 36 | 29.91 | 15 | WSW | |||
| Danbury | CT | 2026-05-04 09:45 | ASOS | 61 | 30 | 31 | 29.90 | 12 | WSW | |||
| Danbury | CT | 2026-05-04 09:40 | ASOS | 61 | 30 | 31 | 29.91 | 14 | WSW | |||
| Danbury | CT | 2026-05-04 09:35 | ASOS | 61 | 30 | 31 | 29.91 | 14 | WSW | |||
| Danbury | CT | 2026-05-04 09:30 | ASOS | 59 | 30 | 33 | 29.91 | 10 | WSW | |||
| Danbury | CT | 2026-05-04 09:25 | ASOS | 59 | 30 | 33 | 29.91 | 13 | SW | |||
| Danbury | CT | 2026-05-04 09:20 | ASOS | 57 | 32 | 38 | 29.91 | 12 | WSW | |||
| Danbury | CT | 2026-05-04 07:50 | ASOS | 54 | 30 | 41 | 29.94 | 8 | SW | |||
| Danbury | CT | 2026-05-04 07:40 | ASOS | 52 | 30 | 43 | 29.94 | 7 | SW | |||
| Danbury | CT | 2026-05-04 10:30 | ASOS | 61 | 30 | 31 | 29.90 | 18 | SW | |||
| Danbury | CT | 2026-05-04 05:30 | ASOS | 43 | 30 | 61 | 29.93 | 7 | WSW | |||
| Danbury | CT | 2026-05-04 05:55 | ASOS | 39 | 30 | 70 | 29.93 | 6 | W | |||
| Danbury | CT | 2026-05-04 05:53 | ASOS | 41 | 31 | 67 | 29.93 | 5 | W | |||
| Danbury | CT | 2026-05-04 05:50 | ASOS | 43 | 30 | 61 | 29.93 | 6 | W | |||
| Danbury | CT | 2026-05-04 05:45 | ASOS | 39 | 30 | 70 | 29.93 | 6 | W | |||
| Danbury | CT | 2026-05-04 05:40 | ASOS | 43 | 30 | 61 | 29.93 | 6 | WSW | |||
| Danbury | CT | 2026-05-04 05:35 | ASOS | 43 | 30 | 61 | 29.93 | 6 | WSW | |||
| Danbury | CT | 2026-05-04 05:25 | ASOS | 39 | 30 | 70 | 29.93 | 8 | WSW | |||
| Danbury | CT | 2026-05-04 06:05 | ASOS | 39 | 30 | 70 | 29.93 | 5 | W | |||
| Danbury | CT | 2026-05-04 05:20 | ASOS | 39 | 30 | 70 | 29.93 | 7 | WSW | |||
| Danbury | CT | 2026-05-04 05:15 | ASOS | 37 | 32 | 81 | 29.93 | 7 | WSW | |||
| Danbury | CT | 2026-05-04 05:10 | ASOS | 36 | 32 | 87 | 29.93 | 6 | WSW | |||
| Danbury | CT | 2026-05-04 05:05 | ASOS | 36 | 32 | 87 | 29.93 | 6 | W | |||
| Danbury | CT | 2026-05-04 05:00 | ASOS | 34 | 30 | 86 | 29.94 | 5 | WSW | |||
| Danbury | CT | 2026-05-04 04:55 | ASOS | 36 | 32 | 87 | 29.93 | 3 | SW | |||
| Danbury | CT | 2026-05-04 06:00 | ASOS | 41 | 32 | 70 | 29.93 | 5 | W | |||
| Danbury | CT | 2026-05-04 06:10 | ASOS | 37 | 32 | 81 | 29.93 | 5 | W | |||
| Danbury | CT | 2026-05-04 07:35 | ASOS | 52 | 30 | 43 | 29.93 | 8 | SW | |||
| Danbury | CT | 2026-05-04 06:55 | ASOS | 48 | 32 | 53 | 29.93 | 5 | WSW | |||
| Danbury | CT | 2026-05-04 07:30 | ASOS | 52 | 32 | 47 | 29.93 | 10 | SW | |||
| Danbury | CT | 2026-05-04 07:25 | ASOS | 52 | 32 | 47 | 29.93 | 12 | SW | |||
| Danbury | CT | 2026-05-04 07:20 | ASOS | 52 | 30 | 43 | 29.93 | 9 | SW | |||
| Danbury | CT | 2026-05-04 07:15 | ASOS | 52 | 32 | 47 | 29.93 | 10 | SW | |||
| Danbury | CT | 2026-05-04 07:05 | ASOS | 48 | 32 | 53 | 29.93 | 7 | WSW | |||
| Danbury | CT | 2026-05-04 07:00 | ASOS | 48 | 32 | 53 | 29.93 | 5 | W | |||
| Danbury | CT | 2026-05-04 06:53 | ASOS | 47 | 32 | 56 | 29.93 | 5 | W | |||
| Danbury | CT | 2026-05-04 06:15 | ASOS | 37 | 32 | 81 | 29.94 | 3 | W | |||
| Danbury | CT | 2026-05-04 06:50 | ASOS | 46 | 30 | 53 | 29.92 | 0 | N | |||
| Danbury | CT | 2026-05-04 06:45 | ASOS | 48 | 30 | 50 | 29.93 | 3 | W | |||
| Danbury | CT | 2026-05-04 06:40 | ASOS | 46 | 30 | 53 | 29.93 | 3 | W | |||
| Danbury | CT | 2026-05-04 06:35 | ASOS | 43 | 32 | 65 | 29.94 | 5 | WSW | |||
| Danbury | CT | 2026-05-04 06:30 | ASOS | 41 | 32 | 70 | 29.94 | 5 | WSW | |||
| Danbury | CT | 2026-05-04 06:25 | ASOS | 37 | 34 | 87 | 29.94 | 3 | WSW | |||
| Danbury | CT | 2026-05-04 06:20 | ASOS | 37 | 32 | 81 | 29.94 | 5 | W | |||
| Danbury | CT | 2026-05-04 10:25 | ASOS | 61 | 32 | 34 | 29.90 | 16 | WSW | |||
| Danbury | CT | 2026-05-04 10:35 | ASOS | 61 | 30 | 31 | 29.90 | 15 | SW | |||
| Danbury | CT | 2026-05-04 04:50 | ASOS | 36 | 32 | 87 | 29.93 | 0 | N | |||
| Danbury | CT | 2026-05-04 14:30 | ASOS | 68 | 35 | 30 | 29.81 | 15 | WSW | |||
| Danbury | CT | 2026-05-04 15:00 | ASOS | 70 | 36 | 28 | 29.80 | 16 | SW | |||
| Danbury | CT | 2026-05-04 14:53 | ASOS | 69 | 35 | 29 | 29.80 | 13 | SW | |||
| Danbury | CT | 2026-05-04 14:50 | ASOS | 70 | 36 | 28 | 29.81 | 12 | SW | |||
| Danbury | CT | 2026-05-04 14:45 | ASOS | 70 | 34 | 26 | 29.80 | 15 | SSW | |||
| Danbury | CT | 2026-05-04 14:40 | ASOS | 68 | 35 | 30 | 29.81 | 15 | SW | |||
| Danbury | CT | 2026-05-04 14:35 | ASOS | 68 | 35 | 30 | 29.81 | 15 | WSW | |||
| Danbury | CT | 2026-05-04 14:25 | ASOS | 68 | 35 | 30 | 29.81 | 17 | WSW | |||
| Danbury | CT | 2026-05-04 15:10 | ASOS | 70 | 36 | 28 | 29.80 | 15 | SW | |||
| Danbury | CT | 2026-05-04 14:20 | ASOS | 68 | 35 | 30 | 29.81 | 15 | SW | |||
| Danbury | CT | 2026-05-04 14:15 | ASOS | 68 | 34 | 28 | 29.82 | 17 | WSW | |||
| Danbury | CT | 2026-05-04 14:10 | ASOS | 68 | 34 | 28 | 29.81 | 15 | SSW | |||
| Danbury | CT | 2026-05-04 14:05 | ASOS | 68 | 35 | 30 | 29.82 | 16 | WSW | |||
| Danbury | CT | 2026-05-04 14:00 | ASOS | 66 | 34 | 30 | 29.82 | 20 | SW | |||
| Danbury | CT | 2026-05-04 13:53 | ASOS | 68 | 35 | 30 | 29.82 | 16 | SW | |||
| Danbury | CT | 2026-05-04 15:05 | ASOS | 70 | 36 | 28 | 29.80 | 14 | WSW | |||
| Danbury | CT | 2026-05-04 15:15 | ASOS | 70 | 34 | 26 | 29.80 | 16 | SSW | |||
| Danbury | CT | 2026-05-04 13:45 | ASOS | 66 | 35 | 32 | 29.82 | 14 | W | |||
| Danbury | CT | 2026-05-04 16:00 | ASOS | 70 | 36 | 28 | 29.79 | 14 | WSW | |||
| Danbury | CT | 2026-05-04 16:30 | ASOS | 70 | 36 | 28 | 29.78 | 13 | SW | |||
| Danbury | CT | 2026-05-04 16:25 | ASOS | 70 | 36 | 28 | 29.78 | 13 | SW | |||
| Danbury | CT | 2026-05-04 16:20 | ASOS | 70 | 36 | 28 | 29.79 | 14 | SW | |||
| Danbury | CT | 2026-05-04 16:15 | ASOS | 70 | 36 | 28 | 29.79 | 15 | SW | |||
| Danbury | CT | 2026-05-04 16:10 | ASOS | 70 | 36 | 28 | 29.79 | 14 | SSW | |||
| Danbury | CT | 2026-05-04 16:05 | ASOS | 70 | 36 | 28 | 29.79 | 14 | SW | |||
| Danbury | CT | 2026-05-04 15:53 | ASOS | 69 | 35 | 29 | 29.79 | 13 | WSW | |||
| Danbury | CT | 2026-05-04 15:20 | ASOS | 70 | 34 | 26 | 29.80 | 15 | SW | |||
| Danbury | CT | 2026-05-04 15:50 | ASOS | 70 | 34 | 26 | 29.79 | 16 | SSW | |||
| Danbury | CT | 2026-05-04 15:45 | ASOS | 70 | 34 | 26 | 29.79 | 15 | S | |||
| Danbury | CT | 2026-05-04 15:40 | ASOS | 70 | 36 | 28 | 29.79 | 15 | SW | |||
| Danbury | CT | 2026-05-04 15:35 | ASOS | 70 | 36 | 28 | 29.80 | 16 | SW | |||
| Danbury | CT | 2026-05-04 15:30 | ASOS | 70 | 36 | 28 | 29.80 | 17 | WSW | |||
| Danbury | CT | 2026-05-04 15:25 | ASOS | 70 | 36 | 28 | 29.80 | 16 | SW | |||
| Danbury | CT | 2026-05-04 13:50 | ASOS | 68 | 35 | 30 | 29.82 | 16 | WSW | |||
| Danbury | CT | 2026-05-04 13:40 | ASOS | 66 | 35 | 32 | 29.83 | 10 | SW | |||
| Danbury | CT | 2026-05-04 10:40 | ASOS | 61 | 30 | 31 | 29.90 | 17 | WSW | |||
| Danbury | CT | 2026-05-04 11:20 | ASOS | 63 | 30 | 29 | 29.88 | 17 | SW | |||
| Danbury | CT | 2026-05-04 11:50 | ASOS | 64 | 32 | 30 | 29.87 | 17 | SW | |||
| Danbury | CT | 2026-05-04 11:45 | ASOS | 64 | 34 | 32 | 29.87 | 13 | WSW | |||
| Danbury | CT | 2026-05-04 11:40 | ASOS | 63 | 34 | 34 | 29.87 | 13 | WSW | |||
| Danbury | CT | 2026-05-04 11:35 | ASOS | 64 | 34 | 32 | 29.88 | 15 | SW | |||
| Danbury | CT | 2026-05-04 11:30 | ASOS | 63 | 32 | 32 | 29.88 | 15 | SW | |||
| Danbury | CT | 2026-05-04 11:25 | ASOS | 63 | 32 | 32 | 29.88 | 15 | SW | |||
| Danbury | CT | 2026-05-04 11:15 | ASOS | 63 | 30 | 29 | 29.89 | 20 | SW | |||
| Danbury | CT | 2026-05-04 11:55 | ASOS | 64 | 32 | 30 | 29.87 | 14 | SW | |||
| Danbury | CT | 2026-05-04 11:10 | ASOS | 63 | 32 | 32 | 29.89 | 18 | WSW | |||
| Danbury | CT | 2026-05-04 11:05 | ASOS | 63 | 32 | 32 | 29.89 | 14 | WSW | |||
| Danbury | CT | 2026-05-04 11:00 | ASOS | 63 | 32 | 32 | 29.89 | 17 | SSW | |||
| Danbury | CT | 2026-05-04 10:53 | ASOS | 62 | 31 | 31 | 29.89 | 20 | SW | |||
| Danbury | CT | 2026-05-04 10:50 | ASOS | 63 | 32 | 32 | 29.90 | 16 | SW | |||
| Danbury | CT | 2026-05-04 10:45 | ASOS | 61 | 32 | 34 | 29.90 | 14 | WSW | |||
| Danbury | CT | 2026-05-04 11:53 | ASOS | 64 | 32 | 30 | 29.87 | 17 | SW | |||
| Danbury | CT | 2026-05-04 12:00 | ASOS | 64 | 34 | 32 | 29.86 | 16 | WSW | |||
| Danbury | CT | 2026-05-04 13:35 | ASOS | 66 | 35 | 32 | 29.83 | 13 | SW | |||
| Danbury | CT | 2026-05-04 12:53 | ASOS | 66 | 33 | 29 | 29.85 | 16 | WSW | |||
| Danbury | CT | 2026-05-04 13:30 | ASOS | 66 | 35 | 32 | 29.83 | 16 | WSW | |||
| Danbury | CT | 2026-05-04 13:25 | ASOS | 66 | 34 | 30 | 29.83 | 13 | SSW | |||
| Danbury | CT | 2026-05-04 13:20 | ASOS | 66 | 34 | 30 | 29.84 | 16 | W | |||
| Danbury | CT | 2026-05-04 13:15 | ASOS | 66 | 35 | 32 | 29.83 | 18 | SW | |||
| Danbury | CT | 2026-05-04 13:05 | ASOS | 66 | 34 | 30 | 29.84 | 18 | WSW | |||
| Danbury | CT | 2026-05-04 13:00 | ASOS | 66 | 34 | 30 | 29.83 | 18 | SW | |||
| Danbury | CT | 2026-05-04 12:50 | ASOS | 66 | 34 | 30 | 29.84 | 16 | SW | |||
| Danbury | CT | 2026-05-04 12:05 | ASOS | 64 | 34 | 32 | 29.86 | 16 | WSW | |||
| Danbury | CT | 2026-05-04 12:45 | ASOS | 66 | 34 | 30 | 29.84 | 14 | WSW | |||
| Danbury | CT | 2026-05-04 12:40 | ASOS | 66 | 34 | 30 | 29.84 | 17 | WSW | |||
| Danbury | CT | 2026-05-04 12:35 | ASOS | 64 | 34 | 32 | 29.85 | 13 | SW | |||
| Danbury | CT | 2026-05-04 12:30 | ASOS | 64 | 34 | 32 | 29.85 | 15 | SSW | |||
| Danbury | CT | 2026-05-04 12:25 | ASOS | 64 | 34 | 32 | 29.86 | 14 | SW | |||
| Danbury | CT | 2026-05-04 12:20 | ASOS | 64 | 34 | 32 | 29.86 | 18 | WSW | |||
| Danbury | CT | 2026-05-04 12:15 | ASOS | 64 | 34 | 32 | 29.86 | 12 | SW | |||
| Danbury | CT | 2026-05-04 04:53 | ASOS | 35 | 32 | 88 | 29.94 | 3 | WSW | |||
| Danbury | CT | 2026-05-04 04:45 | ASOS | 34 | 30 | 86 | 29.94 | 0 | N | |||
| Danbury | CT | 2026-05-03 16:50 | ASOS | 55 | 21 | 26 | 29.81 | 10 | NW | |||
| Danbury | CT | 2026-05-03 20:40 | ASOS | 50 | 25 | 37 | 29.86 | 5 | SW | |||
| Danbury | CT | 2026-05-03 21:15 | ASOS | 46 | 28 | 49 | 29.88 | 5 | SW | |||
| Danbury | CT | 2026-05-03 21:10 | ASOS | 46 | 28 | 49 | 29.88 | 6 | SW | |||
| Danbury | CT | 2026-05-03 21:05 | ASOS | 46 | 28 | 49 | 29.88 | 6 | SW | |||
| Danbury | CT | 2026-05-03 20:53 | ASOS | 47 | 28 | 48 | 29.87 | 5 | SW | |||
| Danbury | CT | 2026-05-03 20:50 | ASOS | 46 | 26 | 46 | 29.87 | 5 | WSW | |||
| Danbury | CT | 2026-05-03 20:45 | ASOS | 48 | 26 | 43 | 29.87 | 5 | SW | |||
| Danbury | CT | 2026-05-03 20:30 | ASOS | 52 | 25 | 35 | 29.86 | 5 | SW | |||
| Danbury | CT | 2026-05-03 21:25 | ASOS | 45 | 30 | 57 | 29.90 | 6 | SW | |||
| Danbury | CT | 2026-05-03 20:25 | ASOS | 54 | 21 | 28 | 29.86 | 5 | WSW | |||
| Danbury | CT | 2026-05-03 20:20 | ASOS | 54 | 21 | 28 | 29.86 | 7 | W | |||
| Danbury | CT | 2026-05-03 20:15 | ASOS | 54 | 21 | 28 | 29.85 | 5 | W | |||
| Danbury | CT | 2026-05-03 20:10 | ASOS | 55 | 21 | 26 | 29.85 | 5 | W | |||
| Danbury | CT | 2026-05-03 20:05 | ASOS | 55 | 21 | 26 | 29.85 | 6 | WNW | |||
| Danbury | CT | 2026-05-03 19:53 | ASOS | 55 | 20 | 25 | 29.85 | 7 | WNW | |||
| Danbury | CT | 2026-05-03 21:20 | ASOS | 46 | 28 | 49 | 29.88 | 6 | SW | |||
| Danbury | CT | 2026-05-03 21:30 | ASOS | 45 | 30 | 57 | 29.90 | 6 | SW | |||
| Danbury | CT | 2026-05-03 19:45 | ASOS | 55 | 19 | 24 | 29.84 | 7 | WNW | |||
| Danbury | CT | 2026-05-03 22:10 | ASOS | 43 | 30 | 61 | 29.90 | 5 | WSW | |||
| Danbury | CT | 2026-05-03 22:40 | ASOS | 43 | 30 | 61 | 29.90 | 0 | N | |||
| Danbury | CT | 2026-05-03 22:35 | ASOS | 43 | 30 | 61 | 29.90 | 0 | N | |||
| Danbury | CT | 2026-05-03 22:30 | ASOS | 43 | 30 | 61 | 29.90 | 0 | N | |||
| Danbury | CT | 2026-05-03 22:25 | ASOS | 43 | 30 | 61 | 29.90 | 0 | N | |||
| Danbury | CT | 2026-05-03 22:20 | ASOS | 43 | 30 | 61 | 29.90 | 3 | SW | |||
| Danbury | CT | 2026-05-03 22:15 | ASOS | 43 | 30 | 61 | 29.90 | 5 | SW | |||
| Danbury | CT | 2026-05-03 22:05 | ASOS | 45 | 30 | 57 | 29.90 | 3 | SW | |||
| Danbury | CT | 2026-05-03 21:35 | ASOS | 45 | 30 | 57 | 29.90 | 6 | SW | |||
| Danbury | CT | 2026-05-03 22:00 | ASOS | 45 | 30 | 57 | 29.90 | 0 | N | |||
| Danbury | CT | 2026-05-03 21:55 | ASOS | 43 | 30 | 61 | 29.90 | 0 | N | |||
| Danbury | CT | 2026-05-03 21:53 | ASOS | 43 | 31 | 62 | 29.90 | 3 | SW | |||
| Danbury | CT | 2026-05-03 21:50 | ASOS | 43 | 30 | 61 | 29.90 | 5 | SW | |||
| Danbury | CT | 2026-05-03 21:45 | ASOS | 45 | 30 | 57 | 29.90 | 5 | SW | |||
| Danbury | CT | 2026-05-03 21:40 | ASOS | 45 | 30 | 57 | 29.90 | 6 | SW | |||
| Danbury | CT | 2026-05-03 19:50 | ASOS | 55 | 19 | 24 | 29.85 | 7 | WNW | |||
| Danbury | CT | 2026-05-03 19:40 | ASOS | 55 | 19 | 24 | 29.84 | 6 | WNW | |||
| Danbury | CT | 2026-05-03 22:50 | ASOS | 39 | 30 | 70 | 29.90 | 3 | SW | |||
| Danbury | CT | 2026-05-03 17:30 | ASOS | 55 | 21 | 26 | 29.81 | 13 | NW | |||
| Danbury | CT | 2026-05-03 17:55 | ASOS | 55 | 21 | 26 | 29.81 | 10 | NW | |||
| Danbury | CT | 2026-05-03 17:53 | ASOS | 56 | 21 | 25 | 29.81 | 12 | NW | |||
| Danbury | CT | 2026-05-03 17:50 | ASOS | 57 | 21 | 24 | 29.81 | 9 | WNW | |||
| Danbury | CT | 2026-05-03 17:45 | ASOS | 55 | 19 | 24 | 29.81 | 10 | WNW | |||
| Danbury | CT | 2026-05-03 17:40 | ASOS | 55 | 19 | 24 | 29.81 | 13 | WNW | |||
| Danbury | CT | 2026-05-03 17:35 | ASOS | 55 | 21 | 26 | 29.81 | 15 | W | |||
| Danbury | CT | 2026-05-03 17:25 | ASOS | 55 | 21 | 26 | 29.81 | 13 | W | |||
| Danbury | CT | 2026-05-03 18:05 | ASOS | 55 | 19 | 24 | 29.81 | 12 | NW | |||
| Danbury | CT | 2026-05-03 17:20 | ASOS | 55 | 21 | 26 | 29.81 | 12 | WNW | |||
| Danbury | CT | 2026-05-03 17:15 | ASOS | 55 | 23 | 28 | 29.81 | 10 | NW | |||
| Danbury | CT | 2026-05-03 17:10 | ASOS | 55 | 25 | 30 | 29.81 | 12 | NW | |||
| Danbury | CT | 2026-05-03 17:05 | ASOS | 55 | 23 | 28 | 29.81 | 14 | NNW | |||
| Danbury | CT | 2026-05-03 17:00 | ASOS | 55 | 23 | 28 | 29.81 | 10 | NW | |||
| Danbury | CT | 2026-05-03 16:53 | ASOS | 55 | 23 | 29 | 29.82 | 13 | WNW | |||
| Danbury | CT | 2026-05-03 18:00 | ASOS | 55 | 19 | 24 | 29.81 | 12 | NW | |||
| Danbury | CT | 2026-05-03 18:10 | ASOS | 55 | 19 | 24 | 29.81 | 14 | WNW | |||
| Danbury | CT | 2026-05-03 19:35 | ASOS | 55 | 19 | 24 | 29.84 | 7 | WNW | |||
| Danbury | CT | 2026-05-03 18:55 | ASOS | 55 | 17 | 22 | 29.83 | 10 | WNW | |||
| Danbury | CT | 2026-05-03 19:30 | ASOS | 55 | 19 | 24 | 29.84 | 6 | WNW | |||
| Danbury | CT | 2026-05-03 19:25 | ASOS | 55 | 19 | 24 | 29.83 | 9 | WNW | |||
| Danbury | CT | 2026-05-03 19:20 | ASOS | 55 | 19 | 24 | 29.83 | 7 | W | |||
| Danbury | CT | 2026-05-03 19:15 | ASOS | 55 | 19 | 24 | 29.83 | 8 | WNW | |||
| Danbury | CT | 2026-05-03 19:05 | ASOS | 55 | 17 | 22 | 29.83 | 7 | WNW | |||
| Danbury | CT | 2026-05-03 19:00 | ASOS | 55 | 17 | 22 | 29.83 | 7 | WNW | |||
| Danbury | CT | 2026-05-03 18:53 | ASOS | 55 | 19 | 24 | 29.83 | 8 | NW | |||
| Danbury | CT | 2026-05-03 18:15 | ASOS | 55 | 19 | 24 | 29.81 | 12 | NW | |||
| Danbury | CT | 2026-05-03 18:50 | ASOS | 55 | 19 | 24 | 29.83 | 9 | WNW | |||
| Danbury | CT | 2026-05-03 18:45 | ASOS | 55 | 17 | 22 | 29.81 | 7 | W | |||
| Danbury | CT | 2026-05-03 18:40 | ASOS | 55 | 17 | 22 | 29.81 | 8 | WNW | |||
| Danbury | CT | 2026-05-03 18:35 | ASOS | 55 | 19 | 24 | 29.81 | 9 | W | |||
| Danbury | CT | 2026-05-03 18:30 | ASOS | 55 | 19 | 24 | 29.81 | 3 | WNW | |||
| Danbury | CT | 2026-05-03 18:25 | ASOS | 55 | 17 | 22 | 29.81 | 7 | W | |||
| Danbury | CT | 2026-05-03 18:20 | ASOS | 55 | 17 | 22 | 29.81 | 13 | WNW | |||
| Danbury | CT | 2026-05-03 22:45 | ASOS | 43 | 30 | 61 | 29.90 | 5 | WSW | |||
| Danbury | CT | 2026-05-03 22:53 | ASOS | 40 | 31 | 70 | 29.90 | 3 | SW | |||
| Danbury | CT | 2026-05-04 04:40 | ASOS | 34 | 30 | 86 | 29.94 | 0 | N | |||
| Danbury | CT | 2026-05-04 02:35 | ASOS | 36 | 32 | 87 | 29.91 | 0 | N | |||
| Danbury | CT | 2026-05-04 03:00 | ASOS | 36 | 32 | 87 | 29.92 | 0 | N | |||
| Danbury | CT | 2026-05-04 02:55 | ASOS | 36 | 32 | 87 | 29.92 | 0 | N | |||
| Danbury | CT | 2026-05-04 02:53 | ASOS | 36 | 32 | 85 | 29.92 | 0 | N | |||
| Danbury | CT | 2026-05-04 02:50 | ASOS | 36 | 32 | 87 | 29.92 | 0 | N | |||
| Danbury | CT | 2026-05-04 02:45 | ASOS | 36 | 32 | 87 | 29.91 | 0 | N | |||
| Danbury | CT | 2026-05-04 02:40 | ASOS | 36 | 32 | 87 | 29.91 | 0 | N | |||
| Danbury | CT | 2026-05-04 02:30 | ASOS | 36 | 32 | 87 | 29.91 | 0 | N | |||
| Danbury | CT | 2026-05-04 03:10 | ASOS | 36 | 32 | 87 | 29.92 | 0 | N | |||
| Danbury | CT | 2026-05-04 02:25 | ASOS | 36 | 32 | 87 | 29.91 | 0 | N | |||
| Danbury | CT | 2026-05-04 02:20 | ASOS | 36 | 32 | 87 | 29.91 | 0 | N | |||
| Danbury | CT | 2026-05-04 02:15 | ASOS | 36 | 32 | 87 | 29.91 | 0 | N | |||
| Danbury | CT | 2026-05-04 02:10 | ASOS | 36 | 34 | 93 | 29.91 | 0 | N | |||
| Danbury | CT | 2026-05-04 02:05 | ASOS | 36 | 32 | 87 | 29.91 | 0 | N | |||
| Danbury | CT | 2026-05-04 02:00 | ASOS | 36 | 32 | 87 | 29.92 | 0 | N | |||
| Danbury | CT | 2026-05-04 03:05 | ASOS | 36 | 32 | 87 | 29.92 | 0 | N | |||
| Danbury | CT | 2026-05-04 03:15 | ASOS | 36 | 32 | 87 | 29.92 | 0 | N | |||
| Danbury | CT | 2026-05-04 01:53 | ASOS | 36 | 32 | 85 | 29.91 | 3 | SW | |||
| Danbury | CT | 2026-05-04 04:05 | ASOS | 36 | 32 | 87 | 29.92 | 0 | N | |||
| Danbury | CT | 2026-05-04 04:35 | ASOS | 36 | 32 | 87 | 29.93 | 0 | N | |||
| Danbury | CT | 2026-05-04 04:30 | ASOS | 36 | 32 | 87 | 29.93 | 0 | N | |||
| Danbury | CT | 2026-05-04 04:25 | ASOS | 36 | 32 | 87 | 29.93 | 0 | N | |||
| Danbury | CT | 2026-05-04 04:20 | ASOS | 36 | 34 | 93 | 29.92 | 0 | N | |||
| Danbury | CT | 2026-05-04 04:15 | ASOS | 36 | 34 | 93 | 29.92 | 0 | N | |||
| Danbury | CT | 2026-05-04 04:10 | ASOS | 36 | 32 | 87 | 29.92 | 0 | N | |||
| Danbury | CT | 2026-05-04 04:00 | ASOS | 36 | 32 | 87 | 29.92 | 0 | N | |||
| Danbury | CT | 2026-05-04 03:20 | ASOS | 36 | 34 | 93 | 29.92 | 0 | N | |||
| Danbury | CT | 2026-05-04 03:55 | ASOS | 36 | 32 | 87 | 29.92 | 0 | N | |||
| Danbury | CT | 2026-05-04 03:53 | ASOS | 36 | 32 | 85 | 29.92 | 0 | N | |||
| Danbury | CT | 2026-05-04 03:50 | ASOS | 36 | 32 | 87 | 29.92 | 0 | N | |||
| Danbury | CT | 2026-05-04 03:45 | ASOS | 36 | 32 | 87 | 29.92 | 0 | N | |||
| Danbury | CT | 2026-05-04 03:40 | ASOS | 36 | 34 | 93 | 29.92 | 0 | N | |||
| Danbury | CT | 2026-05-04 03:30 | ASOS | 36 | 32 | 87 | 29.92 | 0 | N | |||
| Danbury | CT | 2026-05-04 03:25 | ASOS | 36 | 34 | 93 | 29.92 | 0 | N | |||
| Danbury | CT | 2026-05-04 01:55 | ASOS | 36 | 32 | 87 | 29.91 | 0 | N | |||
| Danbury | CT | 2026-05-04 01:50 | ASOS | 36 | 32 | 87 | 29.92 | 0 | N | |||
| Danbury | CT | 2026-05-03 23:00 | ASOS | 41 | 30 | 65 | 29.90 | 0 | N | |||
| Danbury | CT | 2026-05-03 23:40 | ASOS | 37 | 30 | 75 | 29.90 | 0 | N | |||
| Danbury | CT | 2026-05-04 00:05 | ASOS | 39 | 32 | 75 | 29.91 | 0 | N | |||
| Danbury | CT | 2026-05-04 00:00 | ASOS | 39 | 32 | 75 | 29.91 | 0 | N | |||
| Danbury | CT | 2026-05-03 23:55 | ASOS | 39 | 32 | 75 | 29.91 | 0 | N | |||
| Danbury | CT | 2026-05-03 23:53 | ASOS | 39 | 32 | 76 | 29.91 | 0 | N | |||
| Danbury | CT | 2026-05-03 23:50 | ASOS | 39 | 32 | 75 | 29.90 | 0 | N | |||
| Danbury | CT | 2026-05-03 23:45 | ASOS | 39 | 32 | 75 | 29.90 | 0 | N | |||
| Danbury | CT | 2026-05-03 23:35 | ASOS | 39 | 30 | 70 | 29.90 | 3 | SW | |||
| Danbury | CT | 2026-05-04 00:15 | ASOS | 37 | 32 | 81 | 29.91 | 0 | N | |||
| Danbury | CT | 2026-05-03 23:30 | ASOS | 39 | 30 | 70 | 29.90 | 0 | N | |||
| Danbury | CT | 2026-05-03 23:25 | ASOS | 39 | 30 | 70 | 29.90 | 3 | WSW | |||
| Danbury | CT | 2026-05-03 23:20 | ASOS | 37 | 30 | 75 | 29.90 | 3 | WSW | |||
| Danbury | CT | 2026-05-03 23:15 | ASOS | 39 | 30 | 70 | 29.90 | 3 | WSW | |||
| Danbury | CT | 2026-05-03 23:10 | ASOS | 41 | 30 | 65 | 29.90 | 3 | WSW | |||
| Danbury | CT | 2026-05-03 23:05 | ASOS | 41 | 30 | 65 | 29.90 | 0 | N | |||
| Danbury | CT | 2026-05-04 00:10 | ASOS | 37 | 32 | 81 | 29.91 | 0 | N | |||
| Danbury | CT | 2026-05-04 00:20 | ASOS | 37 | 32 | 81 | 29.91 | 0 | N | |||
| Danbury | CT | 2026-05-04 01:45 | ASOS | 36 | 32 | 87 | 29.92 | 0 | N | |||
| Danbury | CT | 2026-05-04 01:10 | ASOS | 36 | 32 | 87 | 29.91 | 3 | WSW | |||
| Danbury | CT | 2026-05-04 01:40 | ASOS | 37 | 32 | 81 | 29.91 | 5 | SW | |||
| Danbury | CT | 2026-05-04 01:35 | ASOS | 36 | 30 | 80 | 29.92 | 5 | SW | |||
| Danbury | CT | 2026-05-04 01:30 | ASOS | 36 | 30 | 80 | 29.92 | 0 | N | |||
| Danbury | CT | 2026-05-04 01:25 | ASOS | 37 | 32 | 81 | 29.92 | 0 | N | |||
| Danbury | CT | 2026-05-04 01:20 | ASOS | 37 | 32 | 81 | 29.92 | 0 | N | |||
| Danbury | CT | 2026-05-04 01:15 | ASOS | 36 | 32 | 87 | 29.91 | 0 | N | |||
| Danbury | CT | 2026-05-04 01:05 | ASOS | 36 | 30 | 80 | 29.91 | 3 | SW | |||
| Danbury | CT | 2026-05-04 00:25 | ASOS | 37 | 32 | 81 | 29.91 | 3 | SW | |||
| Danbury | CT | 2026-05-04 01:00 | ASOS | 37 | 32 | 81 | 29.91 | 0 | N | |||
| Danbury | CT | 2026-05-04 00:53 | ASOS | 38 | 32 | 79 | 29.91 | 0 | N | |||
| Danbury | CT | 2026-05-04 00:50 | ASOS | 37 | 32 | 81 | 29.91 | 0 | N | |||
| Danbury | CT | 2026-05-04 00:45 | ASOS | 37 | 32 | 81 | 29.91 | 0 | N | |||
| Danbury | CT | 2026-05-04 00:40 | ASOS | 37 | 32 | 81 | 29.91 | 0 | N | |||
| Danbury | CT | 2026-05-04 00:35 | ASOS | 37 | 34 | 87 | 29.91 | 0 | N | |||
| Danbury | CT | 2026-05-04 00:30 | ASOS | 36 | 32 | 87 | 29.91 | 3 | W | |||
| Danbury | CT | 2026-05-04 16:35 | ASOS | 70 | 37 | 31 | 29.78 | 13 | SSW |
data collection created in 0.043147087097168 (queried in 0.008240) rendered in: 0.00062799453735352

